aviador You're here:

LFSG Decoded Metar

EPINAL in FRANCE
Report Time2018-06-17 23:30:00
UTC Time2018-06-17 23:53:43
Flight Rules vfr VFR
WindVRB at 02 kt
Visibility9999 m
Phenomena:N/A
Clouds:Scattered 046 Hf
Overcast 140 Hf
Expected CloudBase > 800 ft AGL from Temp-Dew spread
Ceiling14,000 ft
Temp13°C (ISA 0)
Dew Point11°C (88% RH)
AAT12.6°C
QNH1022 hPa
Density Alt978 ft
Elevation1,083 ft
Report Wrong Elevation
Raw Report
METAR LFSG 172330Z AUTO VRB02KT 9999 SCT046 OVC140 13/11 Q1022=

Extra information for LFSG:More info

Metar Taf Metar & Taf Last 4 Metars F.Rules Stats Wind Profile Meteogram Temp Stats Airport Information Weather charts Add Link Nearby VenuesMetar ALERT Operation Metar Decoded Social comments